Terminal Aerodrome Forecast
Issued by NWS

Home | Current Version | Previous Version | Text Only | Print | Product List | Glossary On
Versions: 1 2 3 4 5 6 7 8 9 10 11 12 13 14 15 16
441
FTUS42 KTBW 280520
TAFPGD
TAF
KPGD 280520Z 2806/2906 VRB04KT 6SM BR FEW020
      TEMPO 2807/2811 3SM BR SCT005
     FM281300 15007KT P6SM FEW020
     FM281800 20011KT P6SM SCT050
     FM282200 24007KT P6SM SCT060
     FM290200 12006KT P6SM FEW050=

USA.gov is the U.S. government's official web portal to all federal, state and local government web resources and services.